createdAt,value
2019-04-11T00:01:14.825Z,97.70
2019-04-11T00:03:43.854Z,97.80
2019-04-11T00:06:12.665Z,97.50
2019-04-11T00:08:41.924Z,97.90
2019-04-11T00:11:11.541Z,97.80
2019-04-11T00:13:41.111Z,97.80
2019-04-11T00:16:09.839Z,97.70
2019-04-11T00:18:38.788Z,97.80
2019-04-11T00:21:07.351Z,97.80
2019-04-11T00:23:36.463Z,97.80
2019-04-11T00:26:06.488Z,97.80
2019-04-11T00:28:35.101Z,97.40
2019-04-11T00:31:04.294Z,97.60
2019-04-11T00:33:33.978Z,97.80
2019-04-11T00:36:02.656Z,97.70
2019-04-11T00:38:32.039Z,97.60
2019-04-11T00:41:01.607Z,97.50
2019-04-11T00:43:35.881Z,97.80
2019-04-11T00:46:01.792Z,97.80
2019-04-11T00:48:30.778Z,97.70
2019-04-11T00:50:59.367Z,97.90
2019-04-11T00:53:27.991Z,97.80
2019-04-11T00:55:56.770Z,97.80
2019-04-11T00:58:25.644Z,97.80
2019-04-11T01:00:55.525Z,98.10
2019-04-11T01:03:24.290Z,97.80
2019-04-11T01:05:54.158Z,97.80
2019-04-11T01:08:23.959Z,97.90
2019-04-11T01:10:52.606Z,97.70
2019-04-11T01:13:21.257Z,97.60
2019-04-11T01:16:00.734Z,97.80
2019-04-11T01:18:29.864Z,97.90
2019-04-11T01:20:58.520Z,97.60
2019-04-11T01:23:27.152Z,97.70
2019-04-11T01:25:56.905Z,98.10
2019-04-11T01:28:26.644Z,97.90
2019-04-11T01:31:03.103Z,98.20
2019-04-11T01:33:31.817Z,98.10
2019-04-11T01:36:00.331Z,97.90
2019-04-11T01:38:30.480Z,98.10
2019-04-11T01:41:00.237Z,97.80
2019-04-11T01:43:29.634Z,98.20
2019-04-11T01:46:00.087Z,97.90
2019-04-11T01:48:31.220Z,97.90
2019-04-11T01:51:01.110Z,98.10
2019-04-11T01:53:30.963Z,98.10
2019-04-11T01:56:00.910Z,98.20
2019-04-11T01:58:30.869Z,98.50
2019-04-11T02:01:08.292Z,98.70
2019-04-11T02:03:41.449Z,98.60
2019-04-11T02:06:09.992Z,98.50
2019-04-11T02:08:39.582Z,98.70
2019-04-11T02:11:09.613Z,99.00
2019-04-11T02:13:39.505Z,98.80
2019-04-11T02:16:08.526Z,98.80
2019-04-11T02:18:37.613Z,99.10
2019-04-11T02:21:06.312Z,99.10
2019-04-11T02:23:48.824Z,99.10
2019-04-11T02:26:22.029Z,99.30
2019-04-11T02:28:50.597Z,99.30
2019-04-11T02:31:20.452Z,99.40
2019-04-11T02:33:51.061Z,99.10
2019-04-11T02:36:20.713Z,99.50
2019-04-11T02:38:54.147Z,99.50
2019-04-11T02:41:21.110Z,99.40
2019-04-11T02:43:51.003Z,99.50
2019-04-11T02:46:31.971Z,99.50
2019-04-11T02:48:52.028Z,99.50
2019-04-11T02:51:20.633Z,99.70
2019-04-11T02:53:49.654Z,99.60
2019-04-11T02:56:19.376Z,99.60
2019-04-11T02:58:48.354Z,99.80
2019-04-11T03:01:17.887Z,99.70
2019-04-11T03:03:47.464Z,99.60
2019-04-11T03:06:17.575Z,99.80
2019-04-11T03:08:48.827Z,99.70
2019-04-11T03:11:19.103Z,99.90
2019-04-11T03:13:52.570Z,99.80
2019-04-11T03:16:34.569Z,99.90
2019-04-11T03:19:09.036Z,99.90
2019-04-11T03:21:23.960Z,99.90
2019-04-11T03:23:52.157Z,99.80
2019-04-11T03:26:21.512Z,99.90
2019-04-11T03:28:54.013Z,99.90
2019-04-11T03:32:05.007Z,99.90
2019-04-11T03:37:06.752Z,99.90
2019-04-11T03:39:11.653Z,99.90
2019-04-11T03:41:38.733Z,99.90
2019-04-11T03:44:01.909Z,99.90
2019-04-11T03:46:37.703Z,99.90
2019-04-11T03:49:03.787Z,99.90
2019-04-11T03:51:23.371Z,99.90
2019-04-11T03:53:53.397Z,99.90
2019-04-11T03:56:24.242Z,99.90
2019-04-11T03:58:53.920Z,99.90
2019-04-11T04:01:25.198Z,99.90
2019-04-11T04:03:55.535Z,99.90
2019-04-11T04:06:25.575Z,99.90
2019-04-11T04:08:55.585Z,99.90
2019-04-11T04:11:27.510Z,99.90
2019-04-11T04:14:17.179Z,99.90
2019-04-11T04:16:56.481Z,99.90
2019-04-11T04:19:43.565Z,99.90
2019-04-11T04:22:17.913Z,99.90
2019-04-11T04:24:49.111Z,99.90
2019-04-11T04:27:17.511Z,99.90
2019-04-11T04:29:49.617Z,99.90
2019-04-11T04:32:16.525Z,99.90
2019-04-11T04:34:46.426Z,99.90
2019-04-11T04:37:17.973Z,99.90
2019-04-11T04:39:47.972Z,99.90
2019-04-11T04:42:25.094Z,99.90
2019-04-11T04:44:48.997Z,99.90
2019-04-11T04:47:25.028Z,99.90
2019-04-11T04:49:48.687Z,99.90
2019-04-11T04:52:18.877Z,99.90
2019-04-11T04:54:48.534Z,99.90
2019-04-11T04:57:18.269Z,99.90
2019-04-11T04:59:48.791Z,99.90
2019-04-11T05:02:17.988Z,99.90
2019-04-11T05:04:47.957Z,99.90
2019-04-11T05:07:17.236Z,99.90
2019-04-11T05:09:46.084Z,99.90
2019-04-11T05:12:16.107Z,99.90
2019-04-11T05:14:45.539Z,99.90
2019-04-11T05:17:14.975Z,99.90
2019-04-11T05:19:44.566Z,99.90
2019-04-11T05:22:13.232Z,99.90
2019-04-11T05:24:41.792Z,99.90
2019-04-11T05:27:15.483Z,99.90
2019-04-11T05:29:44.325Z,99.90
2019-04-11T05:32:13.404Z,99.90
2019-04-11T05:34:43.530Z,99.90
2019-04-11T05:37:40.369Z,99.90
2019-04-11T05:40:21.118Z,99.90
2019-04-11T05:42:39.990Z,99.90
2019-04-11T05:45:15.885Z,99.90
2019-04-11T05:47:40.995Z,99.90
2019-04-11T05:50:24.246Z,99.90
2019-04-11T05:52:52.950Z,99.90
2019-04-11T05:55:21.670Z,99.90
2019-04-11T05:57:50.296Z,99.90
2019-04-11T06:00:23.511Z,99.90
2019-04-11T06:02:53.723Z,99.90
2019-04-11T06:05:27.163Z,99.90
2019-04-11T06:07:57.699Z,99.90
2019-04-11T06:10:45.051Z,99.90
2019-04-11T06:13:22.651Z,99.90
2019-04-11T06:16:00.660Z,99.90
2019-04-11T06:18:45.799Z,99.90
2019-04-11T06:21:19.948Z,99.90
2019-04-11T06:23:49.898Z,99.90
2019-04-11T06:26:23.007Z,99.90
2019-04-11T06:28:55.495Z,99.90
2019-04-11T06:31:34.375Z,99.90
2019-04-11T06:34:07.482Z,99.90
2019-04-11T06:36:41.247Z,99.90
2019-04-11T06:39:12.720Z,99.90
2019-04-11T06:41:46.528Z,99.90
2019-04-11T06:44:19.560Z,99.90
2019-04-11T06:47:02.650Z,99.90
2019-04-11T06:49:38.859Z,99.90
2019-04-11T06:52:09.065Z,99.90
2019-04-11T06:54:48.092Z,99.90
2019-04-11T06:57:21.629Z,99.90
2019-04-11T06:59:52.504Z,99.90
2019-04-11T07:02:24.406Z,99.90
2019-04-11T07:04:56.316Z,99.80
2019-04-11T07:07:28.779Z,99.90
2019-04-11T07:09:59.670Z,99.90
2019-04-11T07:12:30.771Z,99.90
2019-04-11T07:15:14.331Z,99.90
2019-04-11T07:18:01.059Z,99.90
2019-04-11T07:20:43.856Z,99.90
2019-04-11T07:23:33.343Z,99.90
2019-04-11T07:26:22.950Z,99.90
2019-04-11T07:28:56.498Z,99.90
2019-04-11T07:31:46.184Z,99.90
2019-04-11T07:34:32.656Z,99.90
2019-04-11T07:37:16.866Z,99.90
2019-04-11T07:39:47.310Z,99.90
2019-04-11T07:42:23.855Z,99.90
2019-04-11T07:44:55.386Z,99.90
2019-04-11T07:47:29.483Z,99.90
2019-04-11T07:50:00.061Z,99.90
2019-04-11T07:52:32.658Z,99.90
2019-04-11T07:55:00.182Z,99.90
2019-04-11T07:57:45.466Z,99.90
2019-04-11T08:00:36.727Z,99.90
2019-04-11T08:03:14.436Z,99.90
2019-04-11T08:05:50.389Z,99.90
2019-04-11T08:08:21.426Z,99.90
2019-04-11T08:11:09.975Z,99.90
2019-04-11T08:13:56.324Z,99.90
2019-04-11T08:16:44.984Z,99.50
2019-04-11T08:19:31.372Z,99.90
2019-04-11T08:22:08.457Z,99.40
2019-04-11T08:24:38.695Z,99.60
2019-04-11T08:27:09.500Z,99.50
2019-04-11T08:29:38.303Z,99.60
2019-04-11T08:32:09.517Z,99.60
2019-04-11T08:34:43.673Z,99.40
2019-04-11T08:37:13.999Z,99.60
2019-04-11T08:39:42.627Z,99.40
2019-04-11T08:42:29.633Z,99.40
2019-04-11T08:44:58.871Z,99.20
2019-04-11T08:47:41.633Z,99.40
2019-04-11T08:49:59.373Z,99.90
2019-04-11T08:52:38.696Z,99.70
2019-04-11T08:55:10.283Z,99.90
2019-04-11T08:57:41.584Z,99.90
2019-04-11T09:00:19.971Z,99.90
2019-04-11T09:02:51.317Z,99.90
2019-04-11T09:05:24.995Z,99.90
2019-04-11T09:07:56.147Z,99.90
2019-04-11T09:10:46.262Z,99.90
2019-04-11T09:13:17.373Z,99.90
2019-04-11T09:16:03.506Z,99.90
2019-04-11T09:18:34.385Z,99.90
2019-04-11T09:21:07.822Z,99.50
2019-04-11T09:23:37.867Z,99.50
2019-04-11T09:26:18.070Z,99.50
2019-04-11T09:28:46.776Z,99.40
2019-04-11T09:31:27.478Z,99.30
2019-04-11T09:33:57.831Z,98.60
2019-04-11T09:36:43.141Z,98.80
2019-04-11T09:39:28.909Z,98.60
2019-04-11T09:41:59.484Z,98.70
2019-04-11T09:44:30.718Z,98.50
2019-04-11T09:47:17.836Z,98.40
2019-04-11T09:49:48.031Z,98.40
2019-04-11T09:52:31.070Z,97.60
2019-04-11T09:55:10.748Z,97.30
2019-04-11T09:57:41.919Z,97.10
2019-04-11T10:00:16.413Z,96.30
2019-04-11T10:02:58.630Z,97.00
2019-04-11T10:05:29.966Z,97.10
2019-04-11T10:08:16.918Z,96.90
2019-04-11T10:10:47.133Z,95.60
2019-04-11T10:13:18.500Z,95.60
2019-04-11T10:16:05.184Z,96.00
2019-04-11T10:18:40.337Z,95.50
2019-04-11T10:21:10.029Z,95.40
2019-04-11T10:23:56.994Z,94.90
2019-04-11T10:26:27.793Z,94.90
2019-04-11T10:29:06.538Z,95.10
2019-04-11T10:31:36.793Z,94.60
2019-04-11T10:34:09.792Z,93.50
2019-04-11T10:36:40.090Z,93.50
2019-04-11T10:39:18.184Z,93.60
2019-04-11T10:41:50.720Z,93.50
2019-04-11T10:44:23.656Z,92.80
2019-04-11T10:46:53.866Z,93.10
2019-04-11T10:49:40.646Z,93.20
2019-04-11T10:52:20.360Z,93.30
2019-04-11T10:55:07.241Z,94.50
2019-04-11T10:57:52.515Z,92.60
2019-04-11T11:00:37.843Z,93.80
2019-04-11T11:03:20.324Z,93.20
2019-04-11T11:05:51.391Z,92.10
2019-04-11T11:08:24.339Z,92.80
2019-04-11T11:10:55.540Z,92.30
2019-04-11T11:13:29.843Z,92.00
2019-04-11T11:15:58.526Z,91.10
2019-04-11T11:19:15.782Z,91.60
2019-04-11T11:21:15.719Z,92.30
2019-04-11T11:24:05.399Z,91.80
2019-04-11T11:26:33.453Z,90.70
2019-04-11T11:29:20.641Z,90.90
2019-04-11T11:31:54.600Z,90.00
2019-04-11T11:34:25.371Z,87.50
2019-04-11T11:36:56.726Z,85.90
2019-04-11T11:39:33.488Z,83.00
2019-04-11T11:42:22.222Z,78.50
2019-04-11T11:44:59.258Z,82.50
2019-04-11T11:47:45.967Z,77.10
2019-04-11T11:50:19.661Z,79.30
2019-04-11T11:52:54.119Z,74.10
2019-04-11T11:55:43.203Z,73.30
2019-04-11T11:58:30.015Z,73.00
2019-04-11T12:01:04.526Z,65.70
2019-04-11T12:03:48.867Z,62.70
2019-04-11T12:06:22.225Z,64.00
2019-04-11T12:08:51.519Z,63.20
2019-04-11T12:11:21.877Z,62.10
2019-04-11T12:14:09.647Z,62.70
2019-04-11T12:16:39.957Z,62.90
2019-04-11T12:19:18.580Z,68.60
2019-04-11T12:21:48.965Z,69.90
2019-04-11T12:24:36.492Z,70.80
2019-04-11T12:27:10.211Z,69.10
2019-04-11T12:29:50.126Z,71.10
2019-04-11T12:32:22.628Z,75.20
2019-04-11T12:35:08.250Z,74.70
2019-04-11T12:37:45.429Z,75.40
2019-04-11T12:40:32.143Z,71.20
2019-04-11T12:43:02.366Z,68.50
2019-04-11T12:45:38.741Z,69.30
2019-04-11T12:48:07.323Z,70.50
2019-04-11T12:50:53.746Z,68.30
2019-04-11T12:53:22.452Z,68.60
2019-04-11T12:55:52.609Z,70.50
2019-04-11T23:51:41.043Z,99.10
2019-04-11T23:54:09.603Z,99.70
2019-04-11T23:56:38.191Z,99.90
2019-04-11T23:59:06.667Z,99.90
